Time;durP1;ratioP1;P1;durP2;ratioP2;P2;SDS_P1;SDS_P2;PMS_P1;PMS_P2;Temp;Humidity;BMP_temperature;BMP_pressure;BME280_temperature;BME280_humidity;BME280_pressure;Samples;Min_cycle;Max_cycle;Signal;HPM_P1;HPM_P2
2023/03/24 00:00:00;;;;;;;6.32;3.85;;;11.20;99.90;;;;;;4921205;29;20058;-71
2023/03/24 00:02:27;;;;;;;7.90;3.78;;;11.20;99.90;;;;;;4921461;29;20040;-71
2023/03/24 00:04:57;;;;;;;9.95;4.35;;;11.20;99.90;;;;;;4922283;29;20039;-70
2023/03/24 00:07:23;;;;;;;10.75;4.45;;;11.20;99.90;;;;;;4938510;29;20070;-71
2023/03/24 00:09:49;;;;;;;14.20;4.25;;;11.20;99.90;;;;;;4926946;29;20048;-70
2023/03/24 00:12:17;;;;;;;11.30;4.05;;;11.20;99.90;;;;;;4926258;29;20376;-70
2023/03/24 00:14:45;;;;;;;8.60;4.45;;;11.20;99.90;;;;;;4927114;29;20051;-71
2023/03/24 00:17:12;;;;;;;13.98;4.50;;;11.20;99.90;;;;;;4922967;29;20051;-71
2023/03/24 00:19:39;;;;;;;8.45;4.45;;;11.10;99.90;;;;;;4927276;29;20048;-70
2023/03/24 00:22:07;;;;;;;8.20;4.25;;;11.20;99.90;;;;;;4911455;29;20196;-70
2023/03/24 00:24:34;;;;;;;9.70;4.10;;;11.10;99.90;;;;;;4922801;29;20333;-70
2023/03/24 00:27:02;;;;;;;8.93;3.72;;;11.20;99.90;;;;;;4924615;29;21063;-70
2023/03/24 00:29:28;;;;;;;11.70;4.72;;;11.10;99.90;;;;;;4925675;29;20044;-70
2023/03/24 00:31:55;;;;;;;9.40;4.18;;;11.10;99.90;;;;;;4908807;29;20039;-70
2023/03/24 00:34:21;;;;;;;12.30;4.68;;;11.10;99.90;;;;;;4926750;29;20046;-70
2023/03/24 00:36:49;;;;;;;8.57;4.15;;;11.10;99.90;;;;;;4928794;29;20150;-70
2023/03/24 00:39:18;;;;;;;9.00;3.97;;;11.10;99.90;;;;;;4924897;29;20381;-70
2023/03/24 00:41:46;;;;;;;8.07;3.67;;;11.10;99.90;;;;;;4927659;29;20399;-70
2023/03/24 00:44:19;;;;;;;14.43;4.38;;;11.10;99.90;;;;;;4929092;29;20315;-70
2023/03/24 00:46:54;;;;;;;8.43;3.90;;;11.10;99.90;;;;;;4928997;29;20126;-71
2023/03/24 00:49:40;;;;;;;8.90;3.95;;;11.10;99.90;;;;;;4927254;29;20039;-71
2023/03/24 00:52:08;;;;;;;10.68;3.97;;;11.10;99.90;;;;;;4925735;29;20401;-70
2023/03/24 00:54:36;;;;;;;9.23;3.83;;;11.10;99.90;;;;;;4926734;29;20040;-70
2023/03/24 00:57:02;;;;;;;7.75;3.42;;;11.10;99.90;;;;;;4927610;29;20141;-68
2023/03/24 00:59:28;;;;;;;10.38;3.92;;;11.10;99.90;;;;;;4925903;29;20093;-69
2023/03/24 01:01:55;;;;;;;9.57;3.85;;;11.10;99.90;;;;;;4927066;29;20075;-70
2023/03/24 01:04:25;;;;;;;8.75;3.78;;;11.20;99.90;;;;;;4924360;29;20044;-69
2023/03/24 01:06:51;;;;;;;7.97;3.63;;;11.20;99.90;;;;;;4914157;29;20097;-69
2023/03/24 01:09:20;;;;;;;10.88;4.03;;;11.20;99.90;;;;;;4926176;29;20492;-69
2023/03/24 01:11:46;;;;;;;9.50;3.70;;;11.20;99.90;;;;;;4930243;29;20083;-69
2023/03/24 01:14:13;;;;;;;10.98;3.95;;;11.10;99.90;;;;;;4924871;29;20482;-69
2023/03/24 01:16:40;;;;;;;9.30;3.65;;;11.10;99.90;;;;;;4926721;29;20040;-69
2023/03/24 01:19:08;;;;;;;9.25;3.80;;;11.10;99.90;;;;;;4927573;29;20048;-69
2023/03/24 01:21:35;;;;;;;6.43;3.58;;;11.10;99.90;;;;;;4932966;29;20137;-69
2023/03/24 01:24:04;;;;;;;9.93;4.20;;;11.20;99.90;;;;;;4929581;29;20051;-69
2023/03/24 01:26:30;;;;;;;10.75;4.25;;;11.20;99.90;;;;;;4927234;29;20043;-69
2023/03/24 01:28:56;;;;;;;7.97;3.78;;;11.20;99.90;;;;;;4930336;29;20044;-70
2023/03/24 01:31:22;;;;;;;7.35;3.58;;;11.20;99.90;;;;;;4909778;29;20131;-70
2023/03/24 01:33:47;;;;;;;8.10;4.13;;;11.20;99.90;;;;;;4928847;29;20099;-69
2023/03/24 01:36:13;;;;;;;9.15;3.30;;;11.20;99.90;;;;;;4927268;29;20127;-70
2023/03/24 01:38:39;;;;;;;9.02;3.78;;;11.20;99.90;;;;;;4909353;29;20040;-69
2023/03/24 01:41:05;;;;;;;5.95;3.60;;;11.20;99.90;;;;;;4912184;29;20466;-69
2023/03/24 01:43:33;;;;;;;8.32;3.78;;;11.20;99.90;;;;;;4930792;29;20145;-68
2023/03/24 01:46:20;;;;;;;9.18;3.72;;;11.20;99.90;;;;;;4928308;29;20050;-68
2023/03/24 01:48:57;;;;;;;7.20;3.58;;;11.20;99.90;;;;;;4929567;29;20171;-69
2023/03/24 01:51:33;;;;;;;5.82;3.60;;;11.10;99.90;;;;;;4931844;29;20437;-69
2023/03/24 01:54:03;;;;;;;5.85;3.40;;;11.20;99.90;;;;;;4931010;29;20056;-69
2023/03/24 01:56:34;;;;;;;5.50;3.30;;;11.20;99.90;;;;;;4930772;29;20051;-69
2023/03/24 01:59:04;;;;;;;7.03;3.97;;;11.20;99.90;;;;;;4925160;29;20120;-68
2023/03/24 02:01:30;;;;;;;9.65;3.55;;;11.20;99.90;;;;;;4927584;29;20086;-69
2023/03/24 02:03:59;;;;;;;5.85;3.80;;;11.30;99.90;;;;;;4931321;29;20523;-69
2023/03/24 02:06:25;;;;;;;6.63;3.42;;;11.20;99.90;;;;;;4925488;29;20384;-69
2023/03/24 02:08:57;;;;;;;5.63;3.60;;;11.30;99.90;;;;;;4929079;29;20102;-70
2023/03/24 02:11:27;;;;;;;7.72;3.63;;;11.30;99.90;;;;;;4927900;29;20051;-70
2023/03/24 02:13:53;;;;;;;8.85;3.67;;;11.20;99.90;;;;;;4924879;29;20554;-69
2023/03/24 02:16:24;;;;;;;5.75;3.67;;;11.30;99.90;;;;;;4929591;29;20221;-69
2023/03/24 02:19:36;;;;;;;8.05;3.67;;;11.30;99.90;;;;;;4930186;29;20055;-70
2023/03/24 02:22:08;;;;;;;6.68;3.58;;;11.40;99.90;;;;;;4931201;29;20384;-69
2023/03/24 02:24:53;;;;;;;8.30;3.40;;;11.40;99.90;;;;;;4927943;29;20043;-70
2023/03/24 02:27:56;;;;;;;7.18;3.58;;;11.40;99.90;;;;;;4916773;29;20044;-69
2023/03/24 02:30:48;;;;;;;8.52;3.60;;;11.40;99.90;;;;;;4925079;29;20054;-68
2023/03/24 02:33:40;;;;;;;7.00;3.72;;;11.40;99.90;;;;;;4928479;29;20618;-68
2023/03/24 02:36:32;;;;;;;5.20;3.20;;;11.40;99.90;;;;;;4928057;29;20082;-69
2023/03/24 02:39:28;;;;;;;6.43;3.40;;;11.40;99.90;;;;;;4906224;29;20051;-69
2023/03/24 02:42:00;;;;;;;6.82;3.28;;;11.40;99.90;;;;;;4924578;29;20046;-69
2023/03/24 02:44:49;;;;;;;7.07;3.40;;;11.40;99.90;;;;;;4928700;29;20051;-69
2023/03/24 02:47:41;;;;;;;8.65;3.97;;;11.40;99.90;;;;;;4939590;29;20055;-69
2023/03/24 02:50:29;;;;;;;8.70;3.55;;;11.40;99.90;;;;;;4931419;29;20052;-68
2023/03/24 02:53:16;;;;;;;12.45;4.20;;;11.40;99.90;;;;;;4930216;29;20504;-68
2023/03/24 02:56:08;;;;;;;6.75;3.60;;;11.50;99.90;;;;;;4929587;29;20095;-68
2023/03/24 02:58:46;;;;;;;5.60;3.28;;;11.40;99.90;;;;;;4927198;29;20059;-69
2023/03/24 03:01:36;;;;;;;7.25;3.45;;;11.40;99.90;;;;;;4921313;29;20036;-69
2023/03/24 03:04:13;;;;;;;4.53;3.40;;;11.50;99.90;;;;;;4925448;29;20047;-69
2023/03/24 03:06:42;;;;;;;6.40;3.50;;;11.50;99.90;;;;;;4928806;29;20039;-69
2023/03/24 03:09:12;;;;;;;5.57;3.60;;;11.50;99.90;;;;;;4928774;29;20047;-69
2023/03/24 03:11:41;;;;;;;6.45;3.80;;;11.50;99.90;;;;;;4927975;29;20040;-69
2023/03/24 03:14:14;;;;;;;7.90;3.78;;;11.50;99.90;;;;;;4926102;29;20043;-70
2023/03/24 03:16:52;;;;;;;5.33;3.43;;;11.50;99.90;;;;;;4926344;29;20086;-69
2023/03/24 03:19:18;;;;;;;3.55;3.05;;;11.50;99.90;;;;;;4926162;29;20055;-70
2023/03/24 03:21:46;;;;;;;8.13;3.78;;;11.60;99.90;;;;;;4928521;29;20457;-69
2023/03/24 03:24:34;;;;;;;6.43;3.08;;;11.60;99.90;;;;;;4929761;29;20055;-70
2023/03/24 03:27:04;;;;;;;5.30;3.17;;;11.60;99.90;;;;;;4930158;29;20047;-69
2023/03/24 03:29:36;;;;;;;5.90;3.38;;;11.60;99.90;;;;;;4912897;29;20552;-69
2023/03/24 03:32:08;;;;;;;6.30;3.65;;;11.60;99.90;;;;;;4929233;29;20035;-69
2023/03/24 03:35:07;;;;;;;7.00;4.07;;;11.60;99.90;;;;;;4925282;29;20047;-69
2023/03/24 03:37:48;;;;;;;4.57;3.00;;;11.60;99.90;;;;;;4924178;29;20083;-69
2023/03/24 03:40:20;;;;;;;5.53;2.88;;;11.60;99.90;;;;;;4927414;29;20493;-69
2023/03/24 03:42:46;;;;;;;4.88;2.42;;;11.60;99.90;;;;;;4906339;29;20123;-69
2023/03/24 03:45:13;;;;;;;3.45;2.03;;;11.60;99.90;;;;;;4925694;29;20048;-69
2023/03/24 03:47:39;;;;;;;2.58;1.60;;;11.50;99.90;;;;;;4921591;29;20040;-69
2023/03/24 03:50:07;;;;;;;4.63;1.48;;;11.50;99.90;;;;;;4906418;29;20044;-69
2023/03/24 03:52:35;;;;;;;5.72;1.48;;;11.40;99.90;;;;;;4926446;29;20066;-69
2023/03/24 03:55:03;;;;;;;2.97;1.10;;;11.20;99.90;;;;;;4941422;29;20039;-69
2023/03/24 03:57:29;;;;;;;3.47;1.35;;;11.10;99.90;;;;;;4928784;29;20135;-69
2023/03/24 03:59:55;;;;;;;7.60;1.75;;;11.00;99.90;;;;;;4908531;29;20052;-69
2023/03/24 04:02:33;;;;;;;6.88;2.10;;;10.90;99.90;;;;;;4925827;29;20105;-69
2023/03/24 04:05:15;;;;;;;5.68;1.48;;;10.90;99.90;;;;;;4927884;29;20074;-68
2023/03/24 04:08:09;;;;;;;6.07;1.55;;;10.80;99.90;;;;;;4926266;29;20067;-68
2023/03/24 04:10:34;;;;;;;6.32;1.38;;;10.70;99.90;;;;;;4907523;29;20078;-68
2023/03/24 04:13:24;;;;;;;8.75;1.75;;;10.60;99.90;;;;;;4929575;29;20071;-68
2023/03/24 04:16:13;;;;;;;4.45;1.80;;;10.60;99.90;;;;;;4926257;29;20040;-69
2023/03/24 04:18:54;;;;;;;6.05;2.28;;;10.50;99.90;;;;;;4918996;29;20044;-68
2023/03/24 04:21:57;;;;;;;9.75;1.98;;;10.40;99.90;;;;;;4930885;29;20462;-68
2023/03/24 04:24:53;;;;;;;7.03;1.70;;;10.40;99.90;;;;;;4909443;29;20040;-68
2023/03/24 04:27:45;;;;;;;7.68;1.95;;;10.40;99.90;;;;;;4924783;29;20133;-68
2023/03/24 04:30:16;;;;;;;9.00;2.20;;;10.30;99.90;;;;;;4926616;29;20048;-67
2023/03/24 04:33:03;;;;;;;7.72;1.98;;;10.30;99.90;;;;;;4922316;29;20380;-67
2023/03/24 04:35:40;;;;;;;7.60;1.60;;;10.30;99.90;;;;;;4911861;29;20523;-68
2023/03/24 04:38:10;;;;;;;8.13;1.88;;;10.20;99.90;;;;;;4926451;29;20047;-68
2023/03/24 04:40:40;;;;;;;8.20;2.00;;;10.20;99.90;;;;;;4925788;29;20043;-67
2023/03/24 04:43:10;;;;;;;13.05;1.58;;;10.10;99.90;;;;;;4910835;29;20502;-68
2023/03/24 04:45:36;;;;;;;9.02;1.92;;;10.10;99.90;;;;;;4908689;29;20044;-67
2023/03/24 04:48:07;;;;;;;7.90;1.35;;;10.10;99.90;;;;;;4905943;29;20109;-67
2023/03/24 04:50:40;;;;;;;16.67;2.05;;;10.10;99.90;;;;;;4930981;29;20040;-67
2023/03/24 04:53:07;;;;;;;11.18;2.20;;;10.00;99.90;;;;;;4927695;29;20039;-67
2023/03/24 04:55:51;;;;;;;10.05;2.10;;;10.00;99.90;;;;;;4930334;29;20039;-67
2023/03/24 04:58:19;;;;;;;7.53;1.60;;;10.00;99.90;;;;;;4931664;29;20591;-69
2023/03/24 05:00:45;;;;;;;10.13;2.03;;;10.00;99.90;;;;;;4932267;29;20102;-68
2023/03/24 05:03:13;;;;;;;13.15;1.90;;;10.00;99.90;;;;;;4930439;29;20052;-69
2023/03/24 05:05:43;;;;;;;12.25;2.08;;;9.90;99.90;;;;;;4932857;29;20040;-68
2023/03/24 05:08:10;;;;;;;10.23;1.77;;;9.90;99.90;;;;;;4930540;29;20365;-69
2023/03/24 05:10:36;;;;;;;10.63;2.35;;;9.80;99.90;;;;;;4912718;29;20488;-68
2023/03/24 05:13:05;;;;;;;12.10;2.50;;;9.80;99.90;;;;;;4917805;29;20066;-68
2023/03/24 05:15:31;;;;;;;15.00;2.60;;;9.80;99.90;;;;;;4928663;29;20082;-68
2023/03/24 05:17:56;;;;;;;14.30;2.20;;;9.80;99.90;;;;;;4927702;29;20048;-68
2023/03/24 05:20:23;;;;;;;10.05;2.50;;;9.80;99.90;;;;;;4934244;29;20142;-69
2023/03/24 05:22:49;;;;;;;17.08;2.42;;;9.80;99.90;;;;;;4930842;29;20043;-68
2023/03/24 05:25:16;;;;;;;10.88;2.30;;;9.70;99.90;;;;;;4934000;29;20087;-68
2023/03/24 05:27:42;;;;;;;11.85;2.53;;;9.70;99.90;;;;;;4915935;29;20042;-68
2023/03/24 05:30:08;;;;;;;11.73;2.05;;;9.60;99.90;;;;;;4948085;29;20629;-66
2023/03/24 05:32:34;;;;;;;10.60;1.90;;;9.70;99.90;;;;;;4930590;29;20054;-68
2023/03/24 05:35:00;;;;;;;10.93;2.13;;;9.60;99.90;;;;;;4929252;29;20514;-67
2023/03/24 05:37:26;;;;;;;8.07;1.33;;;9.60;99.90;;;;;;4928327;29;20142;-67
2023/03/24 05:39:52;;;;;;;11.48;1.92;;;9.50;99.90;;;;;;4932400;29;20075;-68
2023/03/24 05:42:19;;;;;;;8.70;2.05;;;9.50;99.90;;;;;;4927147;29;20075;-68
2023/03/24 05:44:45;;;;;;;17.33;2.20;;;9.50;99.90;;;;;;4932339;29;20039;-67
2023/03/24 05:47:14;;;;;;;10.32;1.50;;;9.40;99.90;;;;;;4931064;29;20484;-66
2023/03/24 05:49:43;;;;;;;9.38;2.10;;;9.30;99.90;;;;;;4931021;29;20127;-66
2023/03/24 05:52:09;;;;;;;12.48;1.83;;;9.20;99.90;;;;;;4926688;29;20123;-66
2023/03/24 05:54:35;;;;;;;8.82;1.40;;;9.20;99.90;;;;;;4931687;29;20518;-67
2023/03/24 05:57:02;;;;;;;13.70;2.13;;;9.20;99.90;;;;;;4931114;29;20102;-67
2023/03/24 05:59:28;;;;;;;12.57;1.90;;;9.20;99.90;;;;;;4934666;29;20126;-67
2023/03/24 06:01:57;;;;;;;14.18;1.95;;;9.10;99.90;;;;;;4930719;29;20091;-68
2023/03/24 06:04:23;;;;;;;10.77;2.15;;;9.10;99.90;;;;;;4925593;29;20044;-67
2023/03/24 06:06:49;;;;;;;13.50;3.08;;;9.00;99.90;;;;;;4930809;29;20047;-67
2023/03/24 06:09:18;;;;;;;14.05;1.92;;;9.00;99.90;;;;;;4928716;29;20042;-66
2023/03/24 06:11:44;;;;;;;13.52;1.85;;;9.10;99.90;;;;;;4933643;29;20095;-67
2023/03/24 06:14:10;;;;;;;10.38;1.73;;;9.10;99.90;;;;;;4932398;29;20051;-66
2023/03/24 06:16:38;;;;;;;7.65;1.40;;;9.10;99.90;;;;;;4931246;29;20031;-67
2023/03/24 06:19:05;;;;;;;9.07;2.00;;;9.10;99.90;;;;;;4930643;29;20126;-67
2023/03/24 06:21:32;;;;;;;7.60;1.67;;;9.10;99.90;;;;;;4932051;29;20039;-67
2023/03/24 06:23:58;;;;;;;10.50;1.52;;;9.10;99.90;;;;;;4929644;29;20148;-67
2023/03/24 06:26:24;;;;;;;13.15;1.70;;;9.20;99.90;;;;;;4928435;29;20482;-66
2023/03/24 06:28:50;;;;;;;6.93;1.40;;;9.20;99.90;;;;;;4931707;29;20036;-66
2023/03/24 06:31:20;;;;;;;11.68;1.85;;;9.30;99.90;;;;;;4928591;29;20078;-67
2023/03/24 06:33:52;;;;;;;10.73;1.85;;;9.30;99.90;;;;;;4930433;29;20487;-67
2023/03/24 06:36:18;;;;;;;10.05;1.80;;;9.40;99.90;;;;;;4927896;29;20039;-66
2023/03/24 06:38:44;;;;;;;6.80;1.48;;;9.40;99.90;;;;;;4930208;29;20380;-66
2023/03/24 06:41:10;;;;;;;13.65;2.28;;;9.40;99.90;;;;;;4931310;29;20506;-66
2023/03/24 06:43:36;;;;;;;7.88;1.70;;;9.50;99.90;;;;;;4930419;29;20441;-68
2023/03/24 06:46:02;;;;;;;17.83;1.80;;;9.50;99.90;;;;;;4927369;29;20484;-68
2023/03/24 06:48:28;;;;;;;11.23;1.90;;;9.60;99.90;;;;;;4927094;29;20032;-68
2023/03/24 06:50:54;;;;;;;11.93;1.70;;;9.60;99.90;;;;;;4914039;29;20047;-68
2023/03/24 06:53:21;;;;;;;13.50;2.10;;;9.70;99.90;;;;;;4927554;29;20082;-68
2023/03/24 06:55:48;;;;;;;15.23;1.92;;;9.80;99.90;;;;;;4931187;29;20384;-68
2023/03/24 06:58:14;;;;;;;11.68;2.00;;;9.90;99.90;;;;;;4930298;29;20078;-68
2023/03/24 07:00:41;;;;;;;13.85;2.60;;;9.90;99.90;;;;;;4925103;29;20052;-67
2023/03/24 07:03:07;;;;;;;10.93;2.20;;;9.90;99.90;;;;;;4926502;29;20502;-67
2023/03/24 07:05:38;;;;;;;11.35;2.28;;;9.90;99.90;;;;;;4929097;29;20048;-67
2023/03/24 07:08:04;;;;;;;10.65;1.85;;;9.90;99.90;;;;;;4914609;29;20509;-68
2023/03/24 07:10:30;;;;;;;11.70;2.00;;;9.90;99.90;;;;;;4930667;29;20162;-68
2023/03/24 07:12:56;;;;;;;16.60;2.10;;;9.90;99.90;;;;;;4931925;29;20083;-67
2023/03/24 07:15:22;;;;;;;13.68;2.50;;;9.90;99.90;;;;;;4928210;29;20047;-67
2023/03/24 07:17:48;;;;;;;12.45;2.00;;;9.90;99.90;;;;;;4926993;29;20044;-65
2023/03/24 07:20:14;;;;;;;13.85;2.47;;;9.90;99.90;;;;;;4928744;29;20043;-67
2023/03/24 07:22:40;;;;;;;14.82;1.90;;;9.90;99.90;;;;;;4926477;29;20080;-66
2023/03/24 07:25:07;;;;;;;14.43;2.30;;;10.00;99.90;;;;;;4929745;29;20048;-66
2023/03/24 07:27:33;;;;;;;14.23;2.05;;;10.00;99.90;;;;;;4925858;29;20050;-67
2023/03/24 07:30:00;;;;;;;18.17;2.78;;;10.00;99.90;;;;;;4913477;29;20510;-66
2023/03/24 07:32:29;;;;;;;15.38;2.47;;;10.10;99.90;;;;;;4930554;29;20100;-66
2023/03/24 07:34:56;;;;;;;18.15;3.33;;;10.20;99.90;;;;;;4925294;29;20043;-65
2023/03/24 07:37:22;;;;;;;18.73;2.95;;;10.20;99.90;;;;;;4929853;29;20050;-66
2023/03/24 07:39:48;;;;;;;16.48;3.13;;;10.30;99.90;;;;;;4929725;29;20199;-67
2023/03/24 07:42:13;;;;;;;18.60;3.10;;;10.40;99.90;;;;;;4924867;29;20460;-65
2023/03/24 07:44:39;;;;;;;19.65;3.05;;;10.40;99.90;;;;;;4926807;29;20047;-66
2023/03/24 07:47:05;;;;;;;15.85;2.92;;;10.40;99.90;;;;;;4924282;29;20051;-66
2023/03/24 07:49:31;;;;;;;19.63;3.13;;;10.40;99.90;;;;;;4930978;29;20047;-66
2023/03/24 07:51:57;;;;;;;21.73;2.90;;;10.50;99.90;;;;;;4925660;29;20039;-66
2023/03/24 07:54:24;;;;;;;13.88;2.92;;;10.60;99.90;;;;;;4931733;29;20044;-66
2023/03/24 07:56:50;;;;;;;13.27;2.85;;;10.90;99.90;;;;;;4926615;29;20132;-66
2023/03/24 07:59:16;;;;;;;20.58;3.72;;;10.90;99.90;;;;;;4926680;29;20060;-66
2023/03/24 08:01:42;;;;;;;20.77;3.67;;;11.00;99.90;;;;;;4927545;29;20123;-66
2023/03/24 08:04:11;;;;;;;21.02;4.57;;;11.20;99.90;;;;;;4928553;29;20047;-66
2023/03/24 08:06:37;;;;;;;20.73;4.85;;;11.40;99.90;;;;;;4921812;29;20035;-67
2023/03/24 08:09:03;;;;;;;21.63;4.53;;;11.40;99.90;;;;;;4922617;29;20055;-66
2023/03/24 08:11:29;;;;;;;19.30;3.83;;;11.30;99.90;;;;;;4928355;29;20175;-66
2023/03/24 08:13:55;;;;;;;18.98;3.97;;;11.20;99.90;;;;;;4929034;29;20031;-65
2023/03/24 08:16:21;;;;;;;20.42;3.72;;;11.20;99.90;;;;;;4928583;29;20044;-65
2023/03/24 08:18:47;;;;;;;20.40;4.97;;;11.20;99.90;;;;;;4926209;29;20666;-65
2023/03/24 08:21:13;;;;;;;20.38;3.10;;;11.10;99.90;;;;;;4932440;29;20067;-66
2023/03/24 08:23:40;;;;;;;23.80;3.97;;;11.20;99.90;;;;;;4926778;29;20476;-66
2023/03/24 08:26:06;;;;;;;21.13;3.92;;;11.40;99.90;;;;;;4925558;29;20079;-66
2023/03/24 08:28:32;;;;;;;17.48;3.47;;;11.40;99.90;;;;;;4926137;29;20131;-65
2023/03/24 08:30:57;;;;;;;19.83;3.65;;;11.30;99.90;;;;;;4925568;29;20520;-66
2023/03/24 08:33:23;;;;;;;17.52;3.50;;;11.20;99.90;;;;;;4926139;29;20131;-67
2023/03/24 08:35:50;;;;;;;13.93;2.50;;;11.10;99.90;;;;;;4930820;29;20396;-66
2023/03/24 08:38:15;;;;;;;17.52;2.80;;;11.20;99.90;;;;;;4927920;29;20057;-66
2023/03/24 08:40:42;;;;;;;15.88;2.45;;;11.80;99.90;;;;;;4928394;29;20328;-66
2023/03/24 08:43:11;;;;;;;21.23;3.13;;;12.60;99.90;;;;;;4929486;29;20044;-65
2023/03/24 08:45:37;;;;;;;19.42;3.60;;;13.60;99.90;;;;;;4929944;29;20054;-66
2023/03/24 08:48:06;;;;;;;16.65;3.20;;;14.30;99.90;;;;;;4926606;29;20048;-67
2023/03/24 08:50:34;;;;;;;20.67;3.00;;;14.30;99.90;;;;;;4929527;29;20067;-66
2023/03/24 08:53:01;;;;;;;20.90;2.90;;;13.80;99.90;;;;;;4923312;29;20407;-66
2023/03/24 08:55:26;;;;;;;18.60;3.15;;;13.70;99.90;;;;;;4927199;29;20377;-66
2023/03/24 08:57:52;;;;;;;16.95;2.92;;;13.40;99.90;;;;;;4928867;29;20078;-66
2023/03/24 09:00:19;;;;;;;16.25;3.25;;;13.00;99.90;;;;;;4925177;29;20142;-66
2023/03/24 09:02:50;;;;;;;17.15;3.15;;;12.60;99.90;;;;;;4925954;29;20047;-67
2023/03/24 09:05:20;;;;;;;16.77;3.58;;;12.30;99.90;;;;;;4926669;29;20059;-66
2023/03/24 09:07:47;;;;;;;15.68;2.88;;;11.90;99.90;;;;;;4930012;29;20147;-66
2023/03/24 09:10:14;;;;;;;16.08;3.28;;;11.70;99.90;;;;;;4929239;29;20112;-67
2023/03/24 09:12:42;;;;;;;16.40;2.88;;;11.50;99.90;;;;;;4925908;29;20096;-67
2023/03/24 09:15:10;;;;;;;13.90;3.05;;;11.30;99.90;;;;;;4928261;29;20523;-66
2023/03/24 09:17:36;;;;;;;14.70;2.88;;;11.10;99.90;;;;;;4928022;29;20042;-67
2023/03/24 09:20:07;;;;;;;15.85;2.78;;;11.30;99.90;;;;;;4926921;29;20067;-66
2023/03/24 09:22:35;;;;;;;18.23;3.28;;;12.10;99.90;;;;;;4926231;29;20491;-67
2023/03/24 09:25:01;;;;;;;13.95;2.30;;;13.20;99.90;;;;;;4928602;29;20047;-67
2023/03/24 09:27:26;;;;;;;18.95;3.15;;;14.20;99.90;;;;;;4932190;29;20044;-67
2023/03/24 09:29:52;;;;;;;13.18;3.08;;;14.70;99.90;;;;;;4910903;29;20040;-67
2023/03/24 09:32:18;;;;;;;16.98;3.55;;;14.70;99.90;;;;;;4932105;29;20114;-67
2023/03/24 09:34:44;;;;;;;16.08;2.78;;;14.30;99.90;;;;;;4928477;29;20036;-67
2023/03/24 09:37:10;;;;;;;10.65;2.58;;;13.90;99.90;;;;;;4931064;29;20486;-66
2023/03/24 09:39:36;;;;;;;13.13;3.22;;;13.50;99.90;;;;;;4929988;29;20122;-67
2023/03/24 09:42:07;;;;;;;14.60;3.10;;;13.10;99.90;;;;;;4934252;29;20083;-68
2023/03/24 09:44:40;;;;;;;15.65;3.22;;;12.80;99.90;;;;;;4932585;29;20502;-68
2023/03/24 09:47:18;;;;;;;16.70;3.53;;;13.30;99.90;;;;;;4934240;29;20514;-67
2023/03/24 09:49:45;;;;;;;15.80;3.13;;;13.90;99.90;;;;;;4911022;29;20402;-67
2023/03/24 09:52:13;;;;;;;14.77;2.40;;;14.20;99.90;;;;;;4931604;29;20083;-67
2023/03/24 09:54:57;;;;;;;16.52;3.03;;;14.40;99.90;;;;;;4932286;29;20043;-67
2023/03/24 09:57:40;;;;;;;12.67;2.33;;;14.30;99.90;;;;;;4918478;29;20063;-67
2023/03/24 10:00:16;;;;;;;13.43;2.42;;;14.00;99.90;;;;;;4932679;29;20040;-68
2023/03/24 10:02:42;;;;;;;17.60;2.97;;;13.40;99.90;;;;;;4929582;29;20044;-67
2023/03/24 10:05:23;;;;;;;13.88;2.97;;;13.20;99.90;;;;;;4930518;29;20411;-68
2023/03/24 10:08:02;;;;;;;14.90;2.63;;;13.30;99.90;;;;;;4931844;29;20566;-68
2023/03/24 10:10:49;;;;;;;12.23;2.60;;;14.00;99.90;;;;;;4928266;29;20098;-68
2023/03/24 10:13:25;;;;;;;13.23;3.22;;;14.90;99.90;;;;;;4930848;29;20059;-67
2023/03/24 10:16:00;;;;;;;12.27;2.67;;;15.50;99.90;;;;;;4931517;29;20146;-68
2023/03/24 10:18:38;;;;;;;14.13;3.47;;;16.10;99.90;;;;;;4910660;29;20083;-68
2023/03/24 10:21:15;;;;;;;12.60;2.78;;;16.50;99.90;;;;;;4929403;29;20099;-68
2023/03/24 10:23:50;;;;;;;14.85;3.15;;;16.70;99.90;;;;;;4939675;29;20047;-67
2023/03/24 10:26:40;;;;;;;12.10;3.05;;;17.00;99.90;;;;;;4929314;29;20921;-68
2023/03/24 10:29:24;;;;;;;12.70;2.83;;;17.20;99.90;;;;;;4930820;29;20062;-68
2023/03/24 10:31:56;;;;;;;10.98;2.65;;;17.60;99.90;;;;;;4927643;29;20051;-69
2023/03/24 10:34:26;;;;;;;10.27;2.20;;;17.70;99.90;;;;;;4931468;29;20126;-68
2023/03/24 10:36:53;;;;;;;17.42;3.13;;;17.60;99.90;;;;;;4929718;29;20272;-67
2023/03/24 10:39:19;;;;;;;14.10;3.08;;;17.50;99.90;;;;;;4930723;29;20066;-68
2023/03/24 10:41:45;;;;;;;11.10;2.45;;;17.70;99.90;;;;;;4932176;29;20043;-67
2023/03/24 10:44:12;;;;;;;13.15;2.70;;;18.00;99.90;;;;;;4929458;29;20047;-68
2023/03/24 10:46:45;;;;;;;15.48;3.15;;;18.20;99.90;;;;;;4929381;29;20040;-67
2023/03/24 10:49:11;;;;;;;12.77;2.85;;;18.50;99.90;;;;;;4932183;29;20082;-67
2023/03/24 10:51:38;;;;;;;11.43;2.20;;;18.80;99.90;;;;;;4932419;29;20583;-67
2023/03/24 10:54:23;;;;;;;11.55;2.22;;;18.60;99.90;;;;;;4925646;29;20102;-67
2023/03/24 10:56:59;;;;;;;14.45;2.22;;;18.70;99.90;;;;;;4925654;29;20055;-68
2023/03/24 10:59:37;;;;;;;8.43;2.20;;;18.20;99.90;;;;;;4930832;29;20044;-68
2023/03/24 11:02:09;;;;;;;9.85;2.65;;;17.40;99.90;;;;;;4931667;29;20079;-68
2023/03/24 11:04:41;;;;;;;11.38;2.42;;;17.10;99.90;;;;;;4924806;29;20134;-68
2023/03/24 11:07:19;;;;;;;11.60;2.20;;;17.40;99.90;;;;;;4914585;29;20511;-67
2023/03/24 11:10:08;;;;;;;12.57;2.60;;;17.80;99.90;;;;;;4928483;29;20048;-67
2023/03/24 11:12:37;;;;;;;10.38;2.15;;;18.10;99.90;;;;;;4925210;29;20048;-67
2023/03/24 11:15:22;;;;;;;9.10;2.00;;;18.20;99.90;;;;;;4930947;29;20522;-67
2023/03/24 11:18:00;;;;;;;12.38;2.58;;;18.00;99.90;;;;;;4929137;29;20039;-68
2023/03/24 11:20:47;;;;;;;12.77;2.45;;;18.10;99.90;;;;;;4929850;29;20407;-68
2023/03/24 11:23:29;;;;;;;10.38;2.38;;;18.20;99.70;;;;;;4930955;29;20480;-67
2023/03/24 11:26:15;;;;;;;8.27;1.83;;;17.70;99.90;;;;;;4931753;29;20046;-68
2023/03/24 11:28:54;;;;;;;12.13;2.20;;;17.10;99.90;;;;;;4922816;29;20048;-67
2023/03/24 11:31:32;;;;;;;8.90;2.30;;;16.60;99.90;;;;;;4932783;29;20058;-68
2023/03/24 11:34:01;;;;;;;11.73;2.28;;;17.00;99.90;;;;;;4928840;29;20057;-68
2023/03/24 11:36:32;;;;;;;14.30;2.90;;;16.90;99.90;;;;;;4930690;29;20031;-68
2023/03/24 11:39:17;;;;;;;11.52;2.10;;;16.50;99.90;;;;;;4926467;29;20051;-67
2023/03/24 11:42:02;;;;;;;11.75;2.40;;;16.20;99.90;;;;;;4930097;29;20167;-68
2023/03/24 11:44:37;;;;;;;9.23;2.05;;;16.40;99.90;;;;;;4923737;29;20158;-68
2023/03/24 11:47:29;;;;;;;10.93;2.22;;;16.60;99.90;;;;;;4920139;29;20095;-68
2023/03/24 11:50:10;;;;;;;11.57;1.90;;;16.30;99.90;;;;;;4929233;29;20047;-67
2023/03/24 11:52:42;;;;;;;13.75;2.28;;;16.00;99.90;;;;;;4930511;29;20068;-68
2023/03/24 11:55:59;;;;;;;11.23;2.10;;;16.00;99.90;;;;;;4932388;29;20162;-67
2023/03/24 11:58:49;;;;;;;10.73;2.42;;;16.90;99.90;;;;;;4892013;29;20048;-68
2023/03/24 12:01:20;;;;;;;13.05;2.50;;;16.70;99.90;;;;;;4929585;29;20103;-67
2023/03/24 12:04:07;;;;;;;9.38;2.30;;;16.10;99.90;;;;;;4931084;29;20039;-68
2023/03/24 12:06:42;;;;;;;11.05;2.38;;;16.20;99.90;;;;;;4930511;29;20058;-68
2023/03/24 12:09:33;;;;;;;13.93;3.00;;;15.80;99.90;;;;;;4929166;29;20507;-68
2023/03/24 12:12:20;;;;;;;9.75;2.58;;;15.40;99.90;;;;;;4923408;29;20098;-68
2023/03/24 12:14:58;;;;;;;13.40;2.05;;;15.20;99.90;;;;;;4927980;29;20035;-68
2023/03/24 12:17:29;;;;;;;11.90;2.72;;;15.60;99.90;;;;;;4928113;29;20074;-68
2023/03/24 12:20:22;;;;;;;11.40;2.13;;;16.50;99.90;;;;;;4929644;29;20135;-68
2023/03/24 12:23:03;;;;;;;9.13;2.30;;;17.70;99.90;;;;;;4930304;29;20043;-68
2023/03/24 12:25:42;;;;;;;10.25;1.63;;;18.70;99.90;;;;;;4926228;29;20043;-68
2023/03/24 12:28:07;;;;;;;6.32;1.48;;;19.60;99.50;;;;;;4925328;29;20063;-68
2023/03/24 12:31:00;;;;;;;9.80;1.88;;;19.80;95.80;;;;;;4928114;29;20036;-69
2023/03/24 12:34:07;;;;;;;10.52;2.00;;;19.90;94.20;;;;;;4929705;29;20092;-69
2023/03/24 12:36:39;;;;;;;9.65;1.77;;;19.90;93.00;;;;;;4894379;29;20363;-68
2023/03/24 12:39:08;;;;;;;6.80;1.77;;;19.80;93.90;;;;;;4928981;29;20044;-68
2023/03/24 12:41:40;;;;;;;8.75;1.98;;;19.60;91.60;;;;;;4925457;29;20552;-68
2023/03/24 12:44:40;;;;;;;9.68;1.80;;;19.80;91.40;;;;;;4927819;29;20067;-69
2023/03/24 12:47:18;;;;;;;8.60;2.00;;;19.30;90.40;;;;;;4926285;29;20062;-68
2023/03/24 12:50:15;;;;;;;11.18;2.20;;;19.40;92.40;;;;;;4926556;29;20028;-69
2023/03/24 12:52:58;;;;;;;10.35;2.28;;;19.10;91.40;;;;;;4926261;29;20059;-69
2023/03/24 12:55:30;;;;;;;9.27;2.17;;;18.00;93.10;;;;;;4926025;29;20047;-68
2023/03/24 12:58:04;;;;;;;8.70;1.85;;;17.20;95.00;;;;;;4911166;29;20474;-68
2023/03/24 13:00:37;;;;;;;9.35;2.15;;;17.70;96.50;;;;;;4927423;29;20054;-68
2023/03/24 13:03:10;;;;;;;12.20;2.38;;;18.20;95.20;;;;;;4928550;29;20377;-68
2023/03/24 13:05:47;;;;;;;10.75;2.53;;;18.40;95.90;;;;;;4928887;29;20091;-68
2023/03/24 13:08:28;;;;;;;11.75;2.28;;;19.00;96.00;;;;;;4926396;29;20377;-68